createdAt,value
2022-11-02T00:01:20.930Z,94.50
2022-11-02T00:03:48.374Z,94.50
2022-11-02T00:06:14.944Z,94.50
2022-11-02T00:08:41.452Z,94.50
2022-11-02T00:11:08.496Z,94.50
2022-11-02T00:13:35.242Z,94.50
2022-11-02T00:16:04.621Z,94.50
2022-11-02T00:18:32.625Z,94.40
2022-11-02T00:20:59.333Z,94.40
2022-11-02T00:23:25.900Z,94.20
2022-11-02T00:25:54.586Z,94.20
2022-11-02T00:28:21.195Z,94.20
2022-11-02T00:30:47.840Z,94.20
2022-11-02T00:33:14.569Z,94.20
2022-11-02T00:35:42.065Z,94.20
2022-11-02T00:38:08.637Z,94.30
2022-11-02T00:40:35.224Z,94.20
2022-11-02T00:43:01.745Z,94.30
2022-11-02T00:45:28.338Z,94.30
2022-11-02T00:47:54.861Z,94.40
2022-11-02T00:50:21.369Z,94.40
2022-11-02T00:52:47.983Z,94.40
2022-11-02T00:55:15.337Z,94.40
2022-11-02T00:57:42.187Z,94.50
2022-11-02T01:00:10.060Z,94.50
2022-11-02T01:02:37.589Z,94.50
2022-11-02T01:05:05.705Z,94.50
2022-11-02T01:07:32.294Z,94.50
2022-11-02T01:09:58.841Z,94.50
2022-11-02T01:12:25.353Z,94.50
2022-11-02T01:14:51.952Z,94.50
2022-11-02T01:17:19.190Z,94.60
2022-11-02T01:19:45.892Z,94.50
2022-11-02T01:22:12.430Z,94.50
2022-11-02T01:24:38.986Z,94.50
2022-11-02T01:27:05.512Z,94.50
2022-11-02T01:29:32.012Z,94.50
2022-11-02T01:31:59.242Z,94.60
2022-11-02T01:34:25.756Z,94.60
2022-11-02T01:36:52.275Z,94.60
2022-11-02T01:39:18.798Z,94.60
2022-11-02T01:41:45.632Z,94.60
2022-11-02T01:44:30.858Z,94.60
2022-11-02T01:47:05.957Z,94.70
2022-11-02T01:49:36.492Z,94.70
2022-11-02T01:52:43.256Z,94.70
2022-11-02T01:55:21.046Z,94.60
2022-11-02T01:57:57.133Z,94.70
2022-11-02T02:00:23.989Z,94.70
2022-11-02T02:03:04.902Z,94.80
2022-11-02T02:05:34.351Z,94.80
2022-11-02T02:08:03.487Z,94.90
2022-11-02T02:10:30.368Z,94.80
2022-11-02T02:12:56.924Z,94.80
2022-11-02T02:15:27.937Z,94.80
2022-11-02T02:18:03.076Z,94.80
2022-11-02T02:20:45.173Z,94.80
2022-11-02T02:23:38.815Z,94.80
2022-11-02T02:26:23.408Z,94.70
2022-11-02T02:28:57.513Z,94.90
2022-11-02T02:31:36.506Z,94.80
2022-11-02T02:34:41.442Z,94.80
2022-11-02T02:37:18.553Z,94.80
2022-11-02T02:39:57.490Z,94.80
2022-11-02T02:42:29.997Z,94.80
2022-11-02T02:45:13.565Z,94.80
2022-11-02T02:48:10.817Z,94.80
2022-11-02T02:50:48.530Z,94.80
2022-11-02T02:53:18.106Z,94.80
2022-11-02T02:55:47.976Z,94.90
2022-11-02T02:58:20.465Z,94.80
2022-11-02T03:00:47.120Z,94.80
2022-11-02T03:03:18.732Z,94.80
2022-11-02T03:06:01.930Z,94.90
2022-11-02T03:08:28.873Z,94.90
2022-11-02T03:11:08.202Z,94.90
2022-11-02T03:13:50.897Z,94.80
2022-11-02T03:17:05.990Z,94.90
2022-11-02T03:19:53.203Z,94.90
2022-11-02T03:22:31.161Z,94.80
2022-11-02T03:25:14.406Z,94.90
2022-11-02T03:27:40.928Z,94.80
2022-11-02T03:30:14.534Z,94.90
2022-11-02T03:32:53.376Z,94.90
2022-11-02T03:35:28.861Z,94.90
2022-11-02T03:38:01.905Z,94.80
2022-11-02T03:40:50.575Z,94.90
2022-11-02T03:43:19.697Z,94.80
2022-11-02T03:45:55.812Z,94.80
2022-11-02T03:48:28.958Z,94.80
2022-11-02T03:50:58.050Z,95.10
2022-11-02T03:53:56.655Z,94.70
2022-11-02T03:56:37.888Z,94.70
2022-11-02T03:59:04.530Z,94.60
2022-11-02T04:01:37.107Z,94.60
2022-11-02T04:04:04.966Z,94.60
2022-11-02T04:06:32.334Z,94.60
2022-11-02T04:08:59.913Z,94.60
2022-11-02T04:11:59.729Z,94.60
2022-11-02T04:14:38.297Z,94.60
2022-11-02T04:17:28.159Z,94.60
2022-11-02T04:19:55.905Z,94.70
2022-11-02T04:22:40.898Z,94.70
2022-11-02T04:25:21.286Z,94.70
2022-11-02T04:27:52.495Z,94.70
2022-11-02T04:30:23.059Z,94.60
2022-11-02T04:33:09.667Z,94.60
2022-11-02T04:35:37.490Z,94.70
2022-11-02T04:38:23.085Z,94.70
2022-11-02T04:41:09.615Z,94.70
2022-11-02T04:43:36.146Z,94.80
2022-11-02T04:46:02.686Z,94.80
2022-11-02T04:48:29.205Z,94.80
2022-11-02T04:50:57.469Z,94.70
2022-11-02T04:53:23.990Z,94.80
2022-11-02T04:55:50.493Z,94.80
2022-11-02T04:58:17.009Z,94.80
2022-11-02T05:00:43.527Z,94.70
2022-11-02T05:03:12.364Z,94.80
2022-11-02T05:05:39.373Z,94.70
2022-11-02T05:08:06.303Z,94.70
2022-11-02T05:10:33.245Z,94.70
2022-11-02T05:13:00.577Z,94.70
2022-11-02T05:15:27.562Z,94.70
2022-11-02T05:17:54.239Z,94.80
2022-11-02T05:20:21.004Z,94.70
2022-11-02T05:22:47.534Z,94.70
2022-11-02T05:25:14.154Z,94.70
2022-11-02T05:27:40.714Z,94.70
2022-11-02T05:30:07.699Z,94.70
2022-11-02T05:32:34.212Z,95.10
2022-11-02T05:35:00.749Z,94.80
2022-11-02T05:37:27.377Z,94.80
2022-11-02T05:39:53.905Z,94.80
2022-11-02T05:42:20.490Z,94.80
2022-11-02T05:44:47.024Z,94.70
2022-11-02T05:47:13.588Z,94.70
2022-11-02T05:49:40.118Z,94.80
2022-11-02T05:52:06.618Z,94.80
2022-11-02T05:54:33.209Z,94.80
2022-11-02T05:56:59.734Z,94.80
2022-11-02T05:59:26.254Z,94.70
2022-11-02T06:01:52.887Z,94.90
2022-11-02T06:04:19.497Z,94.90
2022-11-02T06:06:46.086Z,94.90
2022-11-02T06:09:12.635Z,94.90
2022-11-02T06:11:39.173Z,94.90
2022-11-02T06:14:05.776Z,95.00
2022-11-02T06:16:32.538Z,95.00
2022-11-02T06:18:59.149Z,95.00
2022-11-02T06:21:25.782Z,95.00
2022-11-02T06:23:52.441Z,95.00
2022-11-02T06:26:19.004Z,95.10
2022-11-02T06:28:45.567Z,95.20
2022-11-02T06:31:12.601Z,95.20
2022-11-02T06:33:39.133Z,95.30
2022-11-02T06:36:06.319Z,95.30
2022-11-02T06:38:32.847Z,95.30
2022-11-02T06:41:05.542Z,95.40
2022-11-02T06:43:33.309Z,95.30
2022-11-02T06:46:00.098Z,95.50
2022-11-02T06:48:34.275Z,95.40
2022-11-02T06:51:02.741Z,95.40
2022-11-02T06:53:29.416Z,95.50
2022-11-02T06:55:57.584Z,95.50
2022-11-02T06:58:24.802Z,95.40
2022-11-02T07:00:57.995Z,95.50
2022-11-02T07:03:24.616Z,95.50
2022-11-02T07:05:52.286Z,95.50
2022-11-02T07:08:19.738Z,95.50
2022-11-02T07:10:46.927Z,95.60
2022-11-02T07:13:13.466Z,95.50
2022-11-02T07:15:40.557Z,95.60
2022-11-02T07:18:08.525Z,95.60
2022-11-02T07:20:35.620Z,95.60
2022-11-02T07:23:03.917Z,95.60
2022-11-02T07:25:32.146Z,95.60
2022-11-02T07:28:02.609Z,95.50
2022-11-02T07:30:30.588Z,95.90
2022-11-02T07:32:57.621Z,95.60
2022-11-02T07:35:24.393Z,95.60
2022-11-02T07:38:02.149Z,95.60
2022-11-02T07:40:30.763Z,95.60
2022-11-02T07:42:58.133Z,95.60
2022-11-02T07:45:25.334Z,95.50
2022-11-02T07:47:52.286Z,95.60
2022-11-02T07:50:21.486Z,95.60
2022-11-02T07:52:56.177Z,95.50
2022-11-02T07:55:28.237Z,95.60
2022-11-02T07:57:59.214Z,95.60
2022-11-02T08:00:28.045Z,95.60
2022-11-02T08:02:56.365Z,95.50
2022-11-02T08:05:23.234Z,95.60
2022-11-02T08:08:00.866Z,95.60
2022-11-02T08:10:29.405Z,95.60
2022-11-02T08:12:56.176Z,95.60
2022-11-02T08:15:23.238Z,95.60
2022-11-02T08:18:04.447Z,95.60
2022-11-02T08:20:33.660Z,95.50
2022-11-02T08:23:00.315Z,95.90
2022-11-02T08:25:26.988Z,95.60
2022-11-02T08:27:58.481Z,95.70
2022-11-02T08:30:26.460Z,95.70
2022-11-02T08:32:56.743Z,95.70
2022-11-02T08:35:23.837Z,95.80
2022-11-02T08:37:55.498Z,95.80
2022-11-02T08:40:22.424Z,95.70
2022-11-02T08:42:48.980Z,95.80
2022-11-02T08:45:15.614Z,95.80
2022-11-02T08:47:42.800Z,95.80
2022-11-02T08:50:10.293Z,95.80
2022-11-02T08:52:40.592Z,95.90
2022-11-02T08:55:07.839Z,95.80
2022-11-02T08:57:45.056Z,95.90
2022-11-02T09:00:12.302Z,95.90
2022-11-02T09:02:38.897Z,95.90
2022-11-02T09:05:05.653Z,95.90
2022-11-02T09:07:32.185Z,95.90
2022-11-02T09:09:58.712Z,95.90
2022-11-02T09:12:25.286Z,95.90
2022-11-02T09:14:51.822Z,95.90
2022-11-02T09:17:18.328Z,95.90
2022-11-02T09:19:44.833Z,95.90
2022-11-02T09:22:11.336Z,95.90
2022-11-02T09:24:37.846Z,95.90
2022-11-02T09:27:04.344Z,95.90
2022-11-02T09:29:30.880Z,95.80
2022-11-02T09:31:57.373Z,95.80
2022-11-02T09:34:23.896Z,95.80
2022-11-02T09:36:50.393Z,95.80
2022-11-02T09:39:18.710Z,95.70
2022-11-02T09:42:01.857Z,95.80
2022-11-02T09:44:47.690Z,95.70
2022-11-02T09:50:03.575Z,95.60
2022-11-02T09:52:37.108Z,95.60
2022-11-02T09:55:12.750Z,95.60
2022-11-02T09:57:43.477Z,95.60
2022-11-02T10:00:14.347Z,96.00
2022-11-02T10:03:07.173Z,95.60
2022-11-02T10:05:56.552Z,95.60
2022-11-02T10:08:31.506Z,95.60
2022-11-02T10:11:07.863Z,95.60
2022-11-02T10:14:14.299Z,95.70
2022-11-02T10:16:56.579Z,95.70
2022-11-02T10:19:27.817Z,95.70
2022-11-02T10:21:58.259Z,95.70
2022-11-02T10:24:43.207Z,95.80
2022-11-02T10:27:26.304Z,95.80
2022-11-02T10:29:59.157Z,95.70
2022-11-02T10:32:25.979Z,95.70
2022-11-02T10:34:58.983Z,95.60
2022-11-02T10:37:50.436Z,95.60
2022-11-02T10:40:35.028Z,95.50
2022-11-02T10:43:28.450Z,95.40
2022-11-02T10:46:30.474Z,95.40
2022-11-02T10:49:00.117Z,95.40
2022-11-02T10:51:28.669Z,95.30
2022-11-02T10:53:56.426Z,95.30
2022-11-02T10:56:30.546Z,95.10
2022-11-02T10:58:57.065Z,95.10
2022-11-02T11:01:23.682Z,95.10
2022-11-02T11:03:57.761Z,95.10
2022-11-02T11:06:35.770Z,95.10
2022-11-02T11:09:16.127Z,95.00
2022-11-02T11:11:53.818Z,95.00
2022-11-02T11:20:24.293Z,94.70
2022-11-02T11:23:23.952Z,94.60
2022-11-02T11:25:54.409Z,94.50
2022-11-02T11:28:25.004Z,94.50
2022-11-02T11:31:14.342Z,94.80
2022-11-02T11:33:46.704Z,94.30
2022-11-02T11:36:23.322Z,94.20
2022-11-02T11:38:50.775Z,94.20
2022-11-02T11:41:17.819Z,94.10
2022-11-02T11:43:47.050Z,94.10
2022-11-02T11:46:15.539Z,94.00
2022-11-02T11:48:45.323Z,93.90
2022-11-02T11:51:42.303Z,93.90
2022-11-02T11:54:21.080Z,93.70
2022-11-02T11:56:49.769Z,93.60
2022-11-02T11:59:46.310Z,93.50
2022-11-02T12:02:25.263Z,93.40
2022-11-02T12:04:58.186Z,93.50
2022-11-02T12:07:46.219Z,93.70
2022-11-02T12:10:15.763Z,93.20
2022-11-02T12:12:59.540Z,93.10
2022-11-02T12:16:02.383Z,93.10
2022-11-02T12:18:47.788Z,92.90
2022-11-02T12:21:49.193Z,92.70
2022-11-02T12:24:49.029Z,92.70
2022-11-02T12:27:43.347Z,92.60
2022-11-02T12:30:25.400Z,92.50
2022-11-02T12:33:19.837Z,92.50
2022-11-02T12:36:11.727Z,92.40
2022-11-02T12:39:16.445Z,92.30
2022-11-02T12:41:55.588Z,92.20
2022-11-02T12:44:47.796Z,92.10
2022-11-02T12:47:33.154Z,92.00
2022-11-02T12:50:14.881Z,92.00
2022-11-02T12:53:01.791Z,92.10
2022-11-02T12:55:38.404Z,92.20
2022-11-02T12:58:14.047Z,92.20
2022-11-02T13:00:43.991Z,92.10
2022-11-02T13:03:22.970Z,92.20
2022-11-02T13:05:57.309Z,92.10
2022-11-02T13:08:38.766Z,92.30
2022-11-02T13:11:11.593Z,92.30
2022-11-02T13:13:41.285Z,92.30
2022-11-02T13:16:10.292Z,92.40
2022-11-02T13:18:53.200Z,92.40
2022-11-02T13:21:30.770Z,92.40
2022-11-02T13:23:59.541Z,92.40
2022-11-02T13:26:30.140Z,92.30
2022-11-02T13:29:15.484Z,92.30
2022-11-02T13:32:04.638Z,92.30
2022-11-02T13:34:35.933Z,92.40
2022-11-02T13:37:11.337Z,92.60
2022-11-02T13:39:45.925Z,92.70
2022-11-02T13:42:27.540Z,92.70
2022-11-02T13:45:15.078Z,92.80
2022-11-02T13:48:09.801Z,92.90
2022-11-02T13:50:42.726Z,92.90
2022-11-02T13:53:16.955Z,92.90
2022-11-02T13:55:54.331Z,93.00
2022-11-02T13:58:23.360Z,93.00
2022-11-02T14:00:51.126Z,93.00
2022-11-02T14:03:29.648Z,93.10
2022-11-02T14:06:00.417Z,93.10
2022-11-02T14:08:31.463Z,93.00
2022-11-02T14:11:10.264Z,93.00
2022-11-02T14:13:52.056Z,92.90
2022-11-02T14:16:45.185Z,92.90
2022-11-02T14:19:23.090Z,93.00
2022-11-02T14:21:52.348Z,93.10
2022-11-02T14:24:34.205Z,93.20
2022-11-02T14:27:13.605Z,93.30
2022-11-02T14:29:46.058Z,93.30
2022-11-02T14:32:21.309Z,93.40
2022-11-02T14:35:12.574Z,93.40
2022-11-02T14:38:03.452Z,93.60
2022-11-02T14:41:07.585Z,93.70
2022-11-02T14:44:00.637Z,93.70
2022-11-02T14:46:57.945Z,93.80
2022-11-02T14:49:32.072Z,93.90
2022-11-02T14:52:22.866Z,94.00
2022-11-02T14:55:09.225Z,94.10
2022-11-02T14:57:40.182Z,94.10
2022-11-02T15:00:23.485Z,94.20
2022-11-02T15:02:53.085Z,94.20
2022-11-02T15:05:42.403Z,94.30
2022-11-02T15:08:27.944Z,94.40
2022-11-02T15:10:54.531Z,94.40
2022-11-02T15:13:21.357Z,94.40
2022-11-02T15:15:50.761Z,94.50
2022-11-02T15:18:29.221Z,94.60
2022-11-02T15:21:10.935Z,94.60
2022-11-02T15:23:50.107Z,94.70
2022-11-02T15:26:23.960Z,94.80
2022-11-02T15:28:51.463Z,94.90
2022-11-02T15:31:25.631Z,94.90
2022-11-02T15:33:56.446Z,95.00
2022-11-02T15:36:31.596Z,95.00
2022-11-02T15:39:00.982Z,95.00
2022-11-02T15:41:53.213Z,95.10
2022-11-02T15:44:45.246Z,95.10
2022-11-02T15:47:33.550Z,95.20
2022-11-02T15:50:18.684Z,95.20
2022-11-02T15:53:21.264Z,95.20
2022-11-02T15:55:47.349Z,95.30
2022-11-02T15:58:39.585Z,95.30
2022-11-02T16:01:19.801Z,95.40
2022-11-02T16:03:51.128Z,95.40
2022-11-02T16:06:29.209Z,95.50
2022-11-02T16:08:59.928Z,95.50
2022-11-02T16:11:27.018Z,95.50
2022-11-02T16:14:08.610Z,95.50
2022-11-02T16:16:46.914Z,95.60
2022-11-02T16:19:20.554Z,95.60
2022-11-02T16:21:48.856Z,95.70
2022-11-02T16:24:15.765Z,95.70
2022-11-02T16:26:45.096Z,95.70
2022-11-02T16:29:16.130Z,95.70
2022-11-02T16:31:43.772Z,95.80
2022-11-02T16:34:26.344Z,95.80
2022-11-02T16:36:53.109Z,95.80
2022-11-02T16:39:27.753Z,95.80
2022-11-02T16:42:07.421Z,95.90
2022-11-02T16:44:34.560Z,95.90
2022-11-02T16:47:07.066Z,96.00
2022-11-02T16:49:42.742Z,96.00
2022-11-02T16:52:33.477Z,96.10
2022-11-02T16:55:00.767Z,96.10
2022-11-02T16:57:30.598Z,96.20
2022-11-02T16:59:59.144Z,96.20
2022-11-02T17:02:38.866Z,96.20
2022-11-02T17:05:17.475Z,96.20
2022-11-02T17:08:05.009Z,96.20
2022-11-02T17:10:34.265Z,96.30
2022-11-02T17:13:02.718Z,96.30
2022-11-02T17:15:32.123Z,96.30
2022-11-02T17:18:08.087Z,96.40
2022-11-02T17:20:36.370Z,96.30
2022-11-02T17:23:05.564Z,96.40
2022-11-02T17:25:37.393Z,96.40
2022-11-02T17:28:25.212Z,96.40
2022-11-02T17:30:52.685Z,96.40
2022-11-02T17:33:27.524Z,96.40
2022-11-02T17:35:56.449Z,96.50
2022-11-02T17:38:27.392Z,96.50
2022-11-02T17:40:54.465Z,96.50
2022-11-02T17:43:22.721Z,96.50
2022-11-02T17:46:00.157Z,96.50
2022-11-02T17:48:30.959Z,96.60
2022-11-02T17:50:59.705Z,96.60
2022-11-02T17:53:26.755Z,96.60
2022-11-02T17:55:54.298Z,96.50
2022-11-02T17:58:20.873Z,96.60
2022-11-02T18:00:47.579Z,96.60
2022-11-02T18:03:17.118Z,96.60
2022-11-02T18:05:46.757Z,96.60
2022-11-02T18:08:16.509Z,96.50
2022-11-02T18:10:45.273Z,96.50
2022-11-02T18:13:13.900Z,96.40
2022-11-02T18:15:40.765Z,96.40
2022-11-02T18:18:07.817Z,96.30
2022-11-02T18:20:38.738Z,96.30
2022-11-02T18:23:13.659Z,96.30
2022-11-02T18:25:40.192Z,96.20
2022-11-02T18:28:07.177Z,96.10
2022-11-02T18:30:33.889Z,96.10
2022-11-02T18:33:01.036Z,96.10
2022-11-02T18:35:27.578Z,96.10
2022-11-02T18:37:54.142Z,96.10
2022-11-02T18:40:20.771Z,96.00
2022-11-02T18:42:47.325Z,96.00
2022-11-02T18:45:15.536Z,95.90
2022-11-02T18:47:42.593Z,95.90
2022-11-02T18:50:12.172Z,95.90
2022-11-02T18:52:39.476Z,96.20
2022-11-02T18:55:06.601Z,95.80
2022-11-02T18:57:33.295Z,95.80
2022-11-02T19:00:02.253Z,95.80
2022-11-02T19:02:29.591Z,95.70
2022-11-02T19:04:56.254Z,95.70
2022-11-02T19:07:41.246Z,95.70
2022-11-02T19:10:08.127Z,95.70
2022-11-02T19:12:34.717Z,95.70
2022-11-02T19:15:02.009Z,95.70
2022-11-02T19:17:28.647Z,95.60
2022-11-02T19:19:55.321Z,95.90
2022-11-02T19:22:24.558Z,95.60
2022-11-02T19:24:51.884Z,95.50
2022-11-02T19:27:21.882Z,95.50
2022-11-02T19:29:52.491Z,95.50
2022-11-02T19:32:20.405Z,95.50
2022-11-02T19:34:49.703Z,95.50
2022-11-02T19:37:20.800Z,95.50
2022-11-02T19:39:48.304Z,95.40
2022-11-02T19:42:15.470Z,95.40
2022-11-02T19:44:44.844Z,95.40
2022-11-02T19:47:11.805Z,95.50
2022-11-02T19:49:38.770Z,95.60
2022-11-02T19:52:05.430Z,95.60
2022-11-02T19:54:32.891Z,95.70
2022-11-02T19:56:59.601Z,95.70
2022-11-02T19:59:26.346Z,95.80
2022-11-02T20:01:53.104Z,95.80
2022-11-02T20:04:19.916Z,95.90
2022-11-02T20:06:46.607Z,96.00
2022-11-02T20:09:18.404Z,96.00
2022-11-02T20:11:46.773Z,96.00
2022-11-02T20:14:15.272Z,96.00
2022-11-02T20:16:42.181Z,96.10
2022-11-02T20:19:09.329Z,96.10
2022-11-02T20:21:41.532Z,96.10
2022-11-02T20:24:10.235Z,96.10
2022-11-02T20:26:38.738Z,96.10
2022-11-02T20:29:06.688Z,96.10
2022-11-02T20:31:35.748Z,96.10
2022-11-02T20:34:12.751Z,96.20
2022-11-02T20:36:39.841Z,96.20
2022-11-02T20:39:07.451Z,95.60
2022-11-02T20:41:36.993Z,95.50
2022-11-02T20:44:43.719Z,94.80
2022-11-02T20:47:10.367Z,94.40
2022-11-02T20:49:55.212Z,94.30
2022-11-02T20:52:22.083Z,94.30
2022-11-02T20:54:48.898Z,94.40
2022-11-02T20:57:15.592Z,94.30
2022-11-02T20:59:43.916Z,94.20
2022-11-02T21:02:12.433Z,94.30
2022-11-02T21:04:39.562Z,94.30
2022-11-02T21:07:07.444Z,94.30
2022-11-02T21:09:34.998Z,94.70
2022-11-02T21:12:20.827Z,94.40
2022-11-02T21:14:47.504Z,94.50
2022-11-02T21:17:14.159Z,94.50
2022-11-02T21:19:41.083Z,94.60
2022-11-02T21:22:07.719Z,94.60
2022-11-02T21:24:34.383Z,94.60
2022-11-02T21:27:01.021Z,94.60
2022-11-02T21:29:27.730Z,94.70
2022-11-02T21:31:54.783Z,94.70
2022-11-02T21:34:21.468Z,95.20
2022-11-02T21:36:48.737Z,95.00
2022-11-02T21:39:15.491Z,94.80
2022-11-02T21:41:42.152Z,94.80
2022-11-02T21:44:09.049Z,94.80
2022-11-02T21:46:36.081Z,94.80
2022-11-02T21:49:03.040Z,95.00
2022-11-02T21:51:29.816Z,94.90
2022-11-02T21:53:56.823Z,95.00
2022-11-02T21:56:26.134Z,94.70
2022-11-02T21:58:54.487Z,94.60
2022-11-02T22:01:58.930Z,94.70
2022-11-02T22:04:31.465Z,94.40
2022-11-02T22:06:59.552Z,94.30
2022-11-02T22:09:26.622Z,94.10
2022-11-02T22:16:27.060Z,93.90
2022-11-02T22:19:07.237Z,93.80
2022-11-02T22:21:46.140Z,93.70
2022-11-02T22:24:26.249Z,93.70
2022-11-02T22:26:53.808Z,93.60
2022-11-02T22:29:20.930Z,93.60
2022-11-02T22:31:47.682Z,93.90
2022-11-02T22:34:15.417Z,93.40
2022-11-02T22:36:44.567Z,93.40
2022-11-02T22:39:13.234Z,93.40
2022-11-02T22:41:47.092Z,93.30
2022-11-02T22:44:16.032Z,93.20
2022-11-02T22:46:50.028Z,93.20
2022-11-02T22:49:19.846Z,93.20
2022-11-02T22:51:48.910Z,93.20
2022-11-02T22:54:17.901Z,93.10
2022-11-02T22:56:46.557Z,92.70
2022-11-02T22:59:13.839Z,92.80
2022-11-02T23:01:41.370Z,92.90
2022-11-02T23:04:09.584Z,92.90
2022-11-02T23:06:36.205Z,92.80
2022-11-02T23:09:03.319Z,92.90
2022-11-02T23:11:36.133Z,92.80
2022-11-02T23:14:04.407Z,92.70
2022-11-02T23:16:39.625Z,92.80
2022-11-02T23:19:22.122Z,92.80
2022-11-02T23:22:28.104Z,92.70
2022-11-02T23:25:12.172Z,92.80
2022-11-02T23:28:00.390Z,92.80
2022-11-02T23:30:48.244Z,92.70
2022-11-02T23:33:15.235Z,92.70
2022-11-02T23:36:00.610Z,92.60
2022-11-02T23:38:47.538Z,92.70
2022-11-02T23:41:14.173Z,92.70
2022-11-02T23:43:40.701Z,92.60
2022-11-02T23:46:07.249Z,92.60
2022-11-02T23:48:33.963Z,92.60
2022-11-02T23:51:19.739Z,92.40
2022-11-02T23:54:05.359Z,92.60
2022-11-02T23:56:45.831Z,92.50
2022-11-02T23:59:17.697Z,92.50
